Hauptseite
METAR-TAF:

METAR-TAF

Flughäfen :

Militärflugplatz Nancy-Ochey

Nancy, Frankreich

Breite: 48-35N, Länge: 005-58E, Höhe: 336 m

Beobachtung

Neuester Wetterbericht von vor 44 Minuten, um 10:30 UTC
Wind 4 kt aus unterschiedlichen Richtungen
Temperatur 27°C
Luftfeuchtigkeit 34%
Luftdruck 1018 hPa
Sichtweite 10 km oder mehr
keine Wolken unter 1500 m und keine Kumulonimbus oder Gewitterwolken

METAR: LFSO 191030Z AUTO VRB04KT CAVOK 27/10 Q1018 NOSIG

Zeit: 13:14 (11:14 UTC)

Prognose

Neuester Wetterbericht von vor 3 Stunden und 14 Minuten, um 08:00 UTC
Gültige Prognose vom 19 um 09 UTC bis 20 um 09 UTC
Wind 6 kt aus Nord/Nordost
Sichtweite 10 km oder mehr
keine Wolken unter 1500 m und keine Kumulonimbus oder Gewitterwolken
Übergehend zu
vom 20 um 06 UTC bis 20 um 08 UTC
Wind 5 kt aus West

TAF: LFSO 190800Z 1909/2009 03006KT CAVOK BECMG 2006/2008 28005KT

Wetterbeobachtungen und Prognosen von mehr als 4000 Flughäfen (METAR und TAF Bericht).

Die verfügbaren Stationen werden durch gelbe und rote Markierungen auf der Karte dargestellt.

Führen Sie die Maus auf sie, um den Namen der Station zu sehen.

Darauf klicken, um die Beobachtung von Wetterbeobachtungen und Prognosen zu sehen.

Um die Karte zu ändern : klicken Sie auf den grünen Tasten mit einem schwarzen Kreuz Zum Vergrößern, auf den grünen Button mit einem Gedankenstrich zu verkleinern, oder auf die grünen Pfeile für benachbarte Karten.


METAR-TAF: